createdAt,value
2019-01-29T00:01:32.853Z,97406.86
2019-01-29T00:04:00.990Z,97409.39
2019-01-29T00:06:29.183Z,97410.97
2019-01-29T00:08:57.855Z,97413.14
2019-01-29T00:11:26.020Z,97425.14
2019-01-29T00:13:53.973Z,97433.41
2019-01-29T00:16:22.542Z,97425.80
2019-01-29T00:18:51.106Z,97425.22
2019-01-29T00:21:19.138Z,97424.99
2019-01-29T00:23:47.745Z,97418.66
2019-01-29T00:26:16.169Z,97421.80
2019-01-29T00:28:44.450Z,97417.17
2019-01-29T00:31:12.827Z,97420.75
2019-01-29T00:33:41.063Z,97420.97
2019-01-29T00:36:09.366Z,97424.45
2019-01-29T00:38:38.088Z,97419.77
2019-01-29T00:41:06.198Z,97420.13
2019-01-29T00:43:34.736Z,97423.95
2019-01-29T00:46:03.246Z,97424.45
2019-01-29T00:48:31.998Z,97424.53
2019-01-29T00:51:00.147Z,97436.17
2019-01-29T00:53:28.456Z,97440.59
2019-01-29T00:55:56.493Z,97434.47
2019-01-29T00:58:25.067Z,97435.59
2019-01-29T01:00:53.259Z,97441.55
2019-01-29T01:03:22.578Z,97444.70
2019-01-29T01:05:50.838Z,97449.54
2019-01-29T01:08:19.405Z,97445.73
2019-01-29T01:10:47.543Z,97447.66
2019-01-29T01:13:15.652Z,97445.36
2019-01-29T01:15:43.815Z,97441.02
2019-01-29T01:18:12.134Z,97449.61
2019-01-29T01:20:40.534Z,97452.50
2019-01-29T01:23:10.011Z,97451.68
2019-01-29T01:25:38.112Z,97463.56
2019-01-29T01:28:06.506Z,97456.37
2019-01-29T01:30:36.581Z,97467.73
2019-01-29T01:33:05.574Z,97468.78
2019-01-29T01:35:34.877Z,97474.06
2019-01-29T01:38:03.095Z,97473.91
2019-01-29T01:40:31.188Z,97473.69
2019-01-29T01:42:59.191Z,97481.77
2019-01-29T01:45:28.260Z,97478.83
2019-01-29T01:47:56.361Z,97478.48
2019-01-29T01:50:24.651Z,97485.70
2019-01-29T01:52:59.149Z,97480.02
2019-01-29T01:55:22.651Z,97490.16
2019-01-29T01:57:50.794Z,97497.53
2019-01-29T02:00:20.262Z,97502.03
2019-01-29T02:02:48.246Z,97505.69
2019-01-29T02:05:16.356Z,97507.02
2019-01-29T02:07:44.365Z,97510.03
2019-01-29T02:10:25.433Z,97515.31
2019-01-29T02:12:53.402Z,97511.45
2019-01-29T02:15:22.525Z,97517.86
2019-01-29T02:17:50.588Z,97518.67
2019-01-29T02:20:18.605Z,97521.97
2019-01-29T02:22:46.689Z,97517.98
2019-01-29T02:25:14.848Z,97520.53
2019-01-29T02:27:42.814Z,97520.85
2019-01-29T02:30:14.940Z,97526.20
2019-01-29T02:32:43.041Z,97523.06
2019-01-29T02:35:11.185Z,97534.88
2019-01-29T02:37:39.424Z,97522.72
2019-01-29T02:40:16.199Z,97519.50
2019-01-29T02:42:44.825Z,97522.70
2019-01-29T02:45:13.306Z,97522.33
2019-01-29T02:47:43.343Z,97532.09
2019-01-29T02:50:11.727Z,97536.90
2019-01-29T02:52:39.823Z,97532.48
2019-01-29T02:55:09.010Z,97536.49
2019-01-29T02:57:37.083Z,97532.48
2019-01-29T03:00:14.091Z,97527.92
2019-01-29T03:02:42.401Z,97522.72
2019-01-29T03:05:10.754Z,97530.48
2019-01-29T03:07:38.733Z,97538.96
2019-01-29T03:10:09.455Z,97531.80
2019-01-29T03:12:37.489Z,97521.97
2019-01-29T03:15:07.221Z,97532.70
2019-01-29T03:17:35.247Z,97526.73
2019-01-29T03:20:05.359Z,97524.86
2019-01-29T03:22:33.354Z,97528.75
2019-01-29T03:25:01.401Z,97527.98
2019-01-29T03:27:29.385Z,97531.05
2019-01-29T03:29:57.426Z,97532.23
2019-01-29T03:32:25.448Z,97528.05
2019-01-29T03:34:53.525Z,97543.48
2019-01-29T03:37:21.674Z,97537.36
2019-01-29T03:39:49.918Z,97535.94
2019-01-29T03:42:18.164Z,97545.75
2019-01-29T03:44:46.252Z,97550.62
2019-01-29T03:47:14.308Z,97548.17
2019-01-29T03:49:42.368Z,97561.93
2019-01-29T03:52:10.379Z,97564.27
2019-01-29T03:54:38.403Z,97561.50
2019-01-29T03:57:06.382Z,97566.08
2019-01-29T03:59:34.390Z,97564.17
2019-01-29T04:02:02.697Z,97568.13
2019-01-29T04:04:30.739Z,97566.31
2019-01-29T04:06:58.738Z,97570.70
2019-01-29T04:09:26.779Z,97573.23
2019-01-29T04:11:54.777Z,97573.94
2019-01-29T04:14:22.786Z,97577.59
2019-01-29T04:16:50.787Z,97578.52
2019-01-29T04:19:19.358Z,97576.27
2019-01-29T04:21:47.488Z,97578.88
2019-01-29T04:24:15.683Z,97577.74
2019-01-29T04:26:43.799Z,97585.37
2019-01-29T04:29:11.778Z,97583.97
2019-01-29T04:31:39.786Z,97580.50
2019-01-29T04:34:07.856Z,97583.36
2019-01-29T04:36:36.014Z,97582.45
2019-01-29T04:39:07.159Z,97586.22
2019-01-29T04:41:35.222Z,97591.81
2019-01-29T04:44:03.361Z,97591.13
2019-01-29T04:46:31.550Z,97590.66
2019-01-29T04:48:59.514Z,97587.73
2019-01-29T04:51:27.518Z,97589.94
2019-01-29T04:53:57.615Z,97587.70
2019-01-29T04:56:25.729Z,97590.52
2019-01-29T04:58:53.830Z,97590.52
2019-01-29T05:01:22.020Z,97592.97
2019-01-29T05:03:50.186Z,97590.77
2019-01-29T05:06:18.245Z,97597.34
2019-01-29T05:08:48.856Z,97598.86
2019-01-29T05:11:16.913Z,97607.95
2019-01-29T05:13:44.879Z,97608.39
2019-01-29T05:16:12.883Z,97617.36
2019-01-29T05:18:40.835Z,97608.88
2019-01-29T05:21:08.923Z,97608.68
2019-01-29T05:23:36.967Z,97617.61
2019-01-29T05:26:04.962Z,97613.84
2019-01-29T05:28:32.949Z,97626.38
2019-01-29T05:31:00.981Z,97625.17
2019-01-29T05:33:29.297Z,97624.44
2019-01-29T05:35:57.394Z,97624.97
2019-01-29T05:38:25.434Z,97636.13
2019-01-29T05:40:53.558Z,97638.48
2019-01-29T05:43:21.678Z,97635.85
2019-01-29T05:45:51.088Z,97640.10
2019-01-29T05:48:19.163Z,97638.83
2019-01-29T05:50:47.309Z,97646.78
2019-01-29T05:53:15.823Z,97653.06
2019-01-29T05:55:44.151Z,97649.84
2019-01-29T05:58:13.514Z,97653.06
2019-01-29T06:00:41.817Z,97651.95
2019-01-29T06:03:10.359Z,97658.73
2019-01-29T06:05:38.591Z,97653.13
2019-01-29T06:08:06.879Z,97652.77
2019-01-29T06:10:34.912Z,97656.14
2019-01-29T06:13:03.002Z,97653.09
2019-01-29T06:15:31.223Z,97655.20
2019-01-29T06:17:59.235Z,97656.17
2019-01-29T06:20:27.897Z,97648.61
2019-01-29T06:23:07.228Z,97652.48
2019-01-29T06:25:39.265Z,97650.27
2019-01-29T06:28:07.256Z,97656.97
2019-01-29T06:30:35.549Z,97656.91
2019-01-29T06:33:03.691Z,97653.55
2019-01-29T06:35:32.050Z,97652.86
2019-01-29T06:38:00.245Z,97649.41
2019-01-29T06:40:28.368Z,97651.00
2019-01-29T06:42:57.058Z,97648.82
2019-01-29T06:45:26.155Z,97656.61
2019-01-29T06:47:55.245Z,97656.23
2019-01-29T06:50:24.726Z,97653.84
2019-01-29T06:53:00.579Z,97653.78
2019-01-29T06:55:28.825Z,97650.77
2019-01-29T06:57:57.309Z,97651.06
2019-01-29T07:00:27.806Z,97652.03
2019-01-29T07:02:56.401Z,97653.30
2019-01-29T07:05:24.358Z,97661.55
2019-01-29T07:07:52.409Z,97662.98
2019-01-29T07:10:20.685Z,97661.36
2019-01-29T07:12:48.679Z,97667.38
2019-01-29T07:15:39.093Z,97673.46
2019-01-29T07:18:16.961Z,97670.03
2019-01-29T07:20:45.065Z,97678.06
2019-01-29T07:23:13.055Z,97679.98
2019-01-29T07:25:41.056Z,97680.59
2019-01-29T07:28:09.107Z,97686.05
2019-01-29T07:30:37.193Z,97682.24
2019-01-29T07:33:05.239Z,97680.09
2019-01-29T07:35:33.324Z,97683.94
2019-01-29T07:38:01.450Z,97684.47
2019-01-29T07:40:29.464Z,97684.87
2019-01-29T07:42:58.270Z,97683.07
2019-01-29T07:45:26.680Z,97684.55
2019-01-29T07:47:54.661Z,97687.98
2019-01-29T07:50:22.689Z,97686.94
2019-01-29T07:52:50.689Z,97690.16
2019-01-29T07:55:18.867Z,97684.40
2019-01-29T07:57:46.880Z,97682.10
2019-01-29T08:00:16.192Z,97685.91
2019-01-29T08:02:44.386Z,97685.61
2019-01-29T08:05:12.400Z,97686.80
2019-01-29T08:07:40.586Z,97687.47
2019-01-29T08:10:13.929Z,97687.32
2019-01-29T08:12:44.661Z,97679.77
2019-01-29T08:15:12.753Z,97683.34
2019-01-29T08:17:41.718Z,97681.40
2019-01-29T08:20:10.262Z,97679.50
2019-01-29T08:22:38.328Z,97679.08
2019-01-29T08:25:06.521Z,97678.51
2019-01-29T08:27:34.575Z,97675.76
2019-01-29T08:30:03.742Z,97674.88
2019-01-29T08:32:35.178Z,97673.83
2019-01-29T08:35:03.508Z,97682.33
2019-01-29T08:37:31.603Z,97683.09
2019-01-29T08:40:03.241Z,97676.79
2019-01-29T08:42:48.181Z,97676.69
2019-01-29T08:45:18.489Z,97679.81
2019-01-29T08:47:46.510Z,97675.33
2019-01-29T08:50:18.534Z,97678.00
2019-01-29T08:52:46.510Z,97675.11
2019-01-29T08:55:14.912Z,97671.84
2019-01-29T08:57:42.943Z,97672.44
2019-01-29T09:00:13.483Z,97675.65
2019-01-29T09:02:42.111Z,97678.25
2019-01-29T09:05:10.149Z,97673.08
2019-01-29T09:07:38.086Z,97672.73
2019-01-29T09:10:08.304Z,97679.27
2019-01-29T09:12:36.322Z,97678.97
2019-01-29T09:15:08.557Z,97669.19
2019-01-29T09:17:36.526Z,97670.63
2019-01-29T09:20:05.205Z,97668.40
2019-01-29T09:22:33.208Z,97663.98
2019-01-29T09:25:01.447Z,97661.94
2019-01-29T09:27:29.510Z,97659.11
2019-01-29T09:29:57.424Z,97653.86
2019-01-29T09:32:25.521Z,97655.58
2019-01-29T09:34:53.652Z,97657.95
2019-01-29T09:37:21.836Z,97660.78
2019-01-29T09:39:49.906Z,97652.95
2019-01-29T09:42:17.881Z,97656.67
2019-01-29T09:44:46.028Z,97650.72
2019-01-29T09:47:14.619Z,97648.14
2019-01-29T09:49:42.816Z,97644.28
2019-01-29T09:52:10.988Z,97646.00
2019-01-29T09:54:39.525Z,97638.50
2019-01-29T09:57:07.822Z,97636.27
2019-01-29T09:59:35.878Z,97634.13
2019-01-29T10:02:03.839Z,97636.09
2019-01-29T10:04:33.166Z,97637.49
2019-01-29T10:07:01.588Z,97634.89
2019-01-29T10:09:29.581Z,97631.67
2019-01-29T10:11:57.601Z,97625.66
2019-01-29T10:14:25.623Z,97624.03
2019-01-29T10:16:53.880Z,97627.28
2019-01-29T10:19:21.953Z,97622.93
2019-01-29T10:21:50.199Z,97627.65
2019-01-29T10:24:18.169Z,97615.06
2019-01-29T10:26:46.270Z,97611.95
2019-01-29T10:29:14.432Z,97609.05
2019-01-29T10:31:42.866Z,97609.10
2019-01-29T10:34:11.047Z,97606.20
2019-01-29T10:36:39.163Z,97601.73
2019-01-29T10:39:10.015Z,97595.81
2019-01-29T10:41:38.528Z,97592.25
2019-01-29T10:44:06.681Z,97587.97
2019-01-29T10:46:34.784Z,97582.24
2019-01-29T10:49:02.764Z,97581.89
2019-01-29T10:51:30.817Z,97568.33
2019-01-29T10:53:59.106Z,97571.86
2019-01-29T10:56:27.486Z,97562.04
2019-01-29T10:58:55.463Z,97557.64
2019-01-29T11:01:23.443Z,97558.27
2019-01-29T11:03:51.758Z,97550.75
2019-01-29T11:06:19.818Z,97543.70
2019-01-29T11:08:47.880Z,97540.42
2019-01-29T11:11:16.119Z,97533.11
2019-01-29T11:13:44.168Z,97525.64
2019-01-29T11:16:12.449Z,97527.03
2019-01-29T11:18:40.914Z,97523.06
2019-01-29T11:21:08.954Z,97517.14
2019-01-29T11:23:36.984Z,97516.34
2019-01-29T11:26:05.296Z,97507.58
2019-01-29T11:28:33.284Z,97502.38
2019-01-29T11:31:01.437Z,97505.98
2019-01-29T11:33:29.566Z,97497.46
2019-01-29T11:35:57.519Z,97502.80
2019-01-29T11:38:25.605Z,97489.91
2019-01-29T11:40:53.894Z,97485.67
2019-01-29T11:43:22.179Z,97478.91
2019-01-29T11:45:52.700Z,97474.27
2019-01-29T11:48:21.102Z,97469.81
2019-01-29T11:50:49.152Z,97466.30
2019-01-29T11:53:17.233Z,97459.41
2019-01-29T11:55:45.954Z,97458.59
2019-01-29T11:58:14.219Z,97458.08
2019-01-29T12:01:00.571Z,97445.44
2019-01-29T12:03:32.322Z,97452.77
2019-01-29T12:06:01.373Z,97446.95
2019-01-29T12:08:33.294Z,97439.55
2019-01-29T12:11:01.395Z,97435.47
2019-01-29T12:13:29.540Z,97429.28
2019-01-29T12:15:58.054Z,97430.31
2019-01-29T12:18:26.248Z,97424.77
2019-01-29T12:20:54.543Z,97425.38
2019-01-29T12:23:22.768Z,97420.76
2019-01-29T12:25:51.244Z,97414.67
2019-01-29T12:28:19.462Z,97405.73
2019-01-29T12:30:47.949Z,97414.09
2019-01-29T12:33:16.352Z,97406.16
2019-01-29T12:35:44.643Z,97396.28
2019-01-29T12:38:12.912Z,97395.11
2019-01-29T12:40:41.018Z,97394.84
2019-01-29T12:43:09.091Z,97383.36
2019-01-29T12:45:37.265Z,97379.20
2019-01-29T12:48:05.371Z,97372.63
2019-01-29T12:50:33.381Z,97368.28
2019-01-29T12:53:06.702Z,97371.44
2019-01-29T12:55:35.398Z,97367.27
2019-01-29T12:58:05.033Z,97365.28
2019-01-29T13:00:37.000Z,97358.65
2019-01-29T13:03:05.749Z,97351.37
2019-01-29T13:05:35.144Z,97345.44
2019-01-29T13:08:03.810Z,97342.52
2019-01-29T13:10:34.602Z,97341.97
2019-01-29T13:13:07.869Z,97342.87
2019-01-29T13:15:38.649Z,97340.63
2019-01-29T13:18:08.846Z,97326.80
2019-01-29T13:20:36.897Z,97330.59
2019-01-29T13:23:05.219Z,97328.06
2019-01-29T13:26:01.766Z,97325.94
2019-01-29T13:28:45.247Z,97313.23
2019-01-29T13:31:14.003Z,97311.48
2019-01-29T13:33:50.749Z,97308.32
2019-01-29T13:36:20.126Z,97301.70
2019-01-29T13:38:48.474Z,97289.59
2019-01-29T13:41:16.717Z,97287.27
2019-01-29T13:43:45.037Z,97280.12
2019-01-29T13:46:13.642Z,97274.89
2019-01-29T13:48:41.917Z,97266.61
2019-01-29T13:51:10.184Z,97269.92
2019-01-29T13:53:38.696Z,97261.53
2019-01-29T13:56:07.215Z,97259.00
2019-01-29T13:58:35.378Z,97259.13
2019-01-29T14:01:04.230Z,97256.65
2019-01-29T14:03:32.525Z,97257.98
2019-01-29T14:06:03.639Z,97251.58
2019-01-29T14:08:32.380Z,97251.25
2019-01-29T14:11:00.948Z,97256.14
2019-01-29T14:14:16.176Z,97251.59
2019-01-29T14:16:44.762Z,97245.73
2019-01-29T14:19:13.164Z,97240.63
2019-01-29T14:21:41.574Z,97239.72
2019-01-29T14:24:10.157Z,97239.16
2019-01-29T14:26:47.376Z,97233.20
2019-01-29T14:29:09.310Z,97238.75
2019-01-29T14:31:37.778Z,97232.75
2019-01-29T14:34:06.568Z,97227.35
2019-01-29T14:36:35.108Z,97228.23
2019-01-29T14:39:38.608Z,97219.48
2019-01-29T14:42:07.339Z,97218.83
2019-01-29T14:44:40.606Z,97221.22
2019-01-29T14:47:08.950Z,97213.66
2019-01-29T14:49:38.350Z,97210.86
2019-01-29T14:52:28.686Z,97214.23
2019-01-29T14:54:57.568Z,97214.97
2019-01-29T14:57:25.834Z,97204.91
2019-01-29T14:59:54.177Z,97205.53
2019-01-29T15:02:22.569Z,97198.44
2019-01-29T15:04:50.804Z,97200.22
2019-01-29T15:07:18.894Z,97197.06
2019-01-29T15:09:46.998Z,97192.20
2019-01-29T15:12:18.439Z,97191.31
2019-01-29T15:14:46.715Z,97193.05
2019-01-29T15:17:43.856Z,97190.48
2019-01-29T15:20:14.600Z,97181.50
2019-01-29T15:22:43.566Z,97178.01
2019-01-29T15:25:12.050Z,97174.73
2019-01-29T15:27:41.782Z,97174.19
2019-01-29T15:30:19.000Z,97173.41
2019-01-29T15:32:49.995Z,97170.22
2019-01-29T15:35:18.173Z,97166.18
2019-01-29T15:37:46.496Z,97163.70
2019-01-29T15:40:18.631Z,97159.23
2019-01-29T15:42:46.667Z,97154.30
2019-01-29T15:45:17.645Z,97151.11
2019-01-29T15:47:45.678Z,97153.09
2019-01-29T15:50:18.259Z,97139.55
2019-01-29T15:52:48.571Z,97139.55
2019-01-29T15:55:17.001Z,97144.72
2019-01-29T15:57:45.174Z,97137.73
2019-01-29T16:00:20.413Z,97130.94
2019-01-29T16:02:48.482Z,97124.66
2019-01-29T16:05:19.727Z,97121.04
2019-01-29T16:07:47.808Z,97117.20
2019-01-29T16:10:20.721Z,97109.73
2019-01-29T16:12:48.936Z,97105.89
2019-01-29T16:15:18.448Z,97098.01
2019-01-29T16:17:46.680Z,97097.63
2019-01-29T16:20:17.109Z,97091.26
2019-01-29T16:22:45.363Z,97086.48
2019-01-29T16:25:14.459Z,97077.16
2019-01-29T16:27:42.845Z,97074.11
2019-01-29T16:30:18.141Z,97070.30
2019-01-29T16:32:46.227Z,97070.82
2019-01-29T16:35:17.163Z,97069.14
2019-01-29T16:37:45.361Z,97069.65
2019-01-29T16:40:14.594Z,97061.30
2019-01-29T16:42:42.550Z,97061.27
2019-01-29T16:45:14.019Z,97059.49
2019-01-29T16:47:42.187Z,97058.80
2019-01-29T16:50:11.156Z,97055.00
2019-01-29T16:52:39.146Z,97056.84
2019-01-29T16:55:10.875Z,97049.84
2019-01-29T16:57:38.855Z,97044.84
2019-01-29T17:00:20.710Z,97042.94
2019-01-29T17:02:48.750Z,97046.30
2019-01-29T17:05:16.791Z,97031.88
2019-01-29T17:07:44.781Z,97033.16
2019-01-29T17:10:13.989Z,97027.44
2019-01-29T17:12:41.988Z,97027.80
2019-01-29T17:15:16.538Z,97024.73
2019-01-29T17:17:44.904Z,97016.48
2019-01-29T17:20:35.196Z,97020.16
2019-01-29T17:23:03.730Z,97011.19
2019-01-29T17:25:34.438Z,97006.40
2019-01-29T17:28:02.594Z,97007.20
2019-01-29T17:30:36.095Z,96998.68
2019-01-29T17:33:05.059Z,96997.69
2019-01-29T17:35:36.559Z,96989.52
2019-01-29T17:38:04.826Z,96985.70
2019-01-29T17:40:32.992Z,96979.34
2019-01-29T17:43:00.970Z,96974.00
2019-01-29T17:45:32.499Z,96966.11
2019-01-29T17:48:00.520Z,96962.04
2019-01-29T17:50:31.266Z,96955.88
2019-01-29T17:52:59.449Z,96954.41
2019-01-29T17:55:29.099Z,96954.59
2019-01-29T17:57:57.164Z,96951.23
2019-01-29T18:00:29.325Z,96940.64
2019-01-29T18:02:57.588Z,96939.20
2019-01-29T18:05:25.662Z,96936.48
2019-01-29T18:07:54.034Z,96938.39
2019-01-29T18:10:22.048Z,96938.38
2019-01-29T18:12:50.079Z,96934.39
2019-01-29T18:15:21.041Z,96932.91
2019-01-29T18:17:49.565Z,96934.16
2019-01-29T18:20:17.895Z,96934.36
2019-01-29T18:22:45.854Z,96930.44
2019-01-29T18:25:15.804Z,96925.38
2019-01-29T18:27:43.818Z,96920.63
2019-01-29T18:30:18.406Z,96913.63
2019-01-29T18:32:46.449Z,96912.41
2019-01-29T18:35:14.491Z,96911.83
2019-01-29T18:37:42.477Z,96906.39
2019-01-29T18:40:14.415Z,96908.11
2019-01-29T18:42:42.684Z,96897.77
2019-01-29T18:45:11.253Z,96896.11
2019-01-29T18:47:39.349Z,96891.88
2019-01-29T18:50:09.582Z,96890.34
2019-01-29T18:52:38.949Z,96888.09
2019-01-29T18:55:07.748Z,96878.35
2019-01-29T18:57:36.131Z,96880.09
2019-01-29T19:00:07.910Z,96877.55
2019-01-29T19:02:37.038Z,96879.39
2019-01-29T19:05:06.689Z,96877.75
2019-01-29T19:07:35.174Z,96878.72
2019-01-29T19:10:03.340Z,96872.70
2019-01-29T19:12:31.560Z,96867.81
2019-01-29T19:15:00.046Z,96868.94
2019-01-29T19:17:28.460Z,96860.34
2019-01-29T19:19:56.467Z,96862.16
2019-01-29T19:22:24.490Z,96857.34
2019-01-29T19:24:52.628Z,96853.02
2019-01-29T19:27:20.901Z,96849.50
2019-01-29T19:29:49.171Z,96841.55
2019-01-29T19:32:17.770Z,96838.09
2019-01-29T19:34:46.608Z,96837.80
2019-01-29T19:37:14.569Z,96830.11
2019-01-29T19:39:48.266Z,96820.70
2019-01-29T19:42:27.125Z,96816.88
2019-01-29T19:44:47.008Z,96823.82
2019-01-29T19:47:17.306Z,96818.34
2019-01-29T19:49:45.546Z,96813.97
2019-01-29T19:52:13.980Z,96813.05
2019-01-29T19:54:42.005Z,96808.56
2019-01-29T19:57:09.977Z,96811.27
2019-01-29T19:59:38.071Z,96796.08
2019-01-29T20:02:06.839Z,96798.30
2019-01-29T20:04:35.187Z,96795.67
2019-01-29T20:07:04.529Z,96787.98
2019-01-29T20:09:32.754Z,96780.42
2019-01-29T20:12:00.831Z,96780.25
2019-01-29T20:14:28.893Z,96770.53
2019-01-29T20:16:56.858Z,96770.48
2019-01-29T20:19:24.859Z,96768.33
2019-01-29T20:21:54.165Z,96765.15
2019-01-29T20:24:23.172Z,96764.41
2019-01-29T20:26:51.440Z,96759.39
2019-01-29T20:29:20.586Z,96763.53
2019-01-29T20:31:48.687Z,96756.31
2019-01-29T20:34:17.346Z,96753.78
2019-01-29T20:36:46.248Z,96747.36
2019-01-29T20:39:14.642Z,96749.72
2019-01-29T20:41:43.010Z,96748.25
2019-01-29T20:44:11.002Z,96747.33
2019-01-29T20:46:39.087Z,96742.44
2019-01-29T20:49:07.155Z,96737.41
2019-01-29T20:51:35.296Z,96736.87
2019-01-29T20:54:03.299Z,96736.97
2019-01-29T20:56:31.699Z,96728.21
2019-01-29T20:58:59.796Z,96726.74
2019-01-29T21:01:28.144Z,96720.36
2019-01-29T21:03:56.283Z,96719.17
2019-01-29T21:06:24.227Z,96709.59
2019-01-29T21:08:52.560Z,96709.56
2019-01-29T21:11:20.705Z,96702.53
2019-01-29T21:13:49.765Z,96694.59
2019-01-29T21:16:17.851Z,96692.88
2019-01-29T21:18:45.903Z,96688.89
2019-01-29T21:21:13.953Z,96684.13
2019-01-29T21:23:42.947Z,96681.80
2019-01-29T21:26:11.246Z,96680.27
2019-01-29T21:28:39.290Z,96675.63
2019-01-29T21:31:07.361Z,96667.61
2019-01-29T21:33:35.337Z,96657.09
2019-01-29T21:36:03.344Z,96652.02
2019-01-29T21:38:32.242Z,96640.63
2019-01-29T21:41:00.427Z,96642.98
2019-01-29T21:43:28.778Z,96632.95
2019-01-29T21:45:56.966Z,96632.41
2019-01-29T21:48:25.249Z,96631.58
2019-01-29T21:50:53.403Z,96626.98
2019-01-29T21:53:21.454Z,96621.00
2019-01-29T21:55:49.442Z,96617.37
2019-01-29T21:58:17.561Z,96615.00
2019-01-29T22:00:45.888Z,96611.20
2019-01-29T22:03:15.064Z,96608.34
2019-01-29T22:05:43.196Z,96609.33
2019-01-29T22:08:11.727Z,96605.63
2019-01-29T22:10:39.959Z,96600.55
2019-01-29T22:13:10.083Z,96595.59
2019-01-29T22:15:38.371Z,96597.48
2019-01-29T22:18:08.747Z,96588.91
2019-01-29T22:20:36.746Z,96585.86
2019-01-29T22:23:05.551Z,96586.83
2019-01-29T22:25:37.422Z,96575.45
2019-01-29T22:28:12.403Z,96570.27
2019-01-29T22:30:42.269Z,96563.66
2019-01-29T22:33:16.652Z,96567.72
2019-01-29T22:35:44.825Z,96563.13
2019-01-29T22:38:12.859Z,96561.70
2019-01-29T22:40:41.307Z,96558.09
2019-01-29T22:43:09.534Z,96549.59
2019-01-29T22:45:37.566Z,96545.61
2019-01-29T22:48:07.375Z,96532.87
2019-01-29T22:50:45.927Z,96527.27
2019-01-29T22:53:26.213Z,96525.71
2019-01-29T22:55:54.450Z,96526.20
2019-01-29T22:58:51.973Z,96518.09
2019-01-29T23:01:34.175Z,96517.00
2019-01-29T23:04:33.201Z,96508.35
2019-01-29T23:07:21.110Z,96506.50
2019-01-29T23:09:49.540Z,96499.64
2019-01-29T23:12:17.688Z,96489.20
2019-01-29T23:14:45.708Z,96484.06
2019-01-29T23:17:13.727Z,96482.87
2019-01-29T23:19:41.732Z,96479.60
2019-01-29T23:22:09.799Z,96479.60
2019-01-29T23:24:37.769Z,96474.38
2019-01-29T23:27:05.997Z,96467.88
2019-01-29T23:29:43.332Z,96460.50
2019-01-29T23:32:05.413Z,96461.23
2019-01-29T23:34:33.487Z,96450.69
2019-01-29T23:37:01.474Z,96442.47
2019-01-29T23:39:29.458Z,96438.05
2019-01-29T23:41:57.495Z,96435.08
2019-01-29T23:44:26.425Z,96426.77
2019-01-29T23:46:54.416Z,96418.11
2019-01-29T23:49:22.644Z,96419.83
2019-01-29T23:51:50.714Z,96408.88
2019-01-29T23:54:18.723Z,96406.97
2019-01-29T23:56:47.082Z,96406.89
2019-01-29T23:59:15.039Z,96407.90
